createdAt,value
2023-12-22T00:01:22.439Z,6.08
2023-12-22T00:04:24.133Z,5.95
2023-12-22T00:07:25.938Z,6.00
2023-12-22T00:10:27.610Z,6.02
2023-12-22T00:13:29.293Z,6.01
2023-12-22T00:16:30.996Z,5.99
2023-12-22T00:19:32.747Z,6.02
2023-12-22T00:22:35.362Z,6.06
2023-12-22T00:25:37.035Z,6.11
2023-12-22T00:28:38.813Z,6.11
2023-12-22T00:31:40.581Z,6.30
2023-12-22T00:34:42.263Z,6.33
2023-12-22T00:37:43.890Z,6.58
2023-12-22T00:40:45.559Z,6.47
2023-12-22T00:43:47.290Z,6.46
2023-12-22T00:46:48.999Z,6.43
2023-12-22T00:49:50.733Z,6.32
2023-12-22T00:52:52.542Z,6.15
2023-12-22T00:55:54.642Z,6.10
2023-12-22T00:59:02.160Z,5.94
2023-12-22T01:02:07.399Z,5.98
2023-12-22T01:05:09.357Z,5.99
2023-12-22T01:08:26.138Z,6.06
2023-12-22T01:11:31.271Z,6.15
2023-12-22T01:14:32.961Z,6.17
2023-12-22T01:17:34.787Z,6.10
2023-12-22T01:20:36.449Z,6.22
2023-12-22T01:23:38.060Z,6.20
2023-12-22T01:26:39.694Z,6.28
2023-12-22T01:29:41.405Z,6.32
2023-12-22T01:32:43.066Z,6.33
2023-12-22T01:44:22.660Z,5.45
2023-12-22T01:51:21.752Z,5.31
2023-12-22T01:54:23.429Z,5.25
2023-12-22T01:57:25.033Z,5.26
2023-12-22T02:00:26.975Z,5.31
2023-12-22T02:03:28.717Z,5.26
2023-12-22T02:06:31.137Z,5.21
2023-12-22T02:09:32.892Z,5.25
2023-12-22T02:12:34.524Z,5.24
2023-12-22T02:15:36.168Z,5.31
2023-12-22T02:18:38.823Z,5.30
2023-12-22T02:22:00.619Z,5.45
2023-12-22T02:25:02.245Z,5.45
2023-12-22T02:28:06.441Z,5.39
2023-12-22T02:31:17.474Z,5.49
2023-12-22T02:34:20.435Z,5.49
2023-12-22T02:37:22.681Z,5.55
2023-12-22T02:40:25.271Z,5.42
2023-12-22T02:43:26.890Z,5.65
2023-12-22T02:46:28.777Z,5.65
2023-12-22T02:49:30.461Z,5.67
2023-12-22T02:52:33.575Z,5.86
2023-12-22T02:55:35.595Z,5.91
2023-12-22T02:58:38.362Z,6.05
2023-12-22T03:01:40.016Z,5.97
2023-12-22T03:04:41.683Z,6.14
2023-12-22T03:07:43.358Z,6.15
2023-12-22T03:10:45.009Z,6.23
2023-12-22T03:13:46.626Z,6.25
2023-12-22T03:16:48.290Z,6.19
2023-12-22T03:19:49.930Z,6.31
2023-12-22T03:22:51.632Z,6.21
2023-12-22T03:25:53.288Z,6.11
2023-12-22T03:28:55.050Z,6.17
2023-12-22T03:31:56.720Z,6.01
2023-12-22T03:34:58.467Z,5.99
2023-12-22T03:38:00.079Z,6.06
2023-12-22T03:41:01.706Z,6.17
2023-12-22T03:44:03.433Z,6.11
2023-12-22T03:47:05.040Z,6.06
2023-12-22T03:50:08.271Z,6.10
2023-12-22T03:53:09.916Z,6.07
2023-12-22T03:56:11.495Z,6.11
2023-12-22T03:59:14.301Z,6.02
2023-12-22T04:02:15.884Z,6.00
2023-12-22T04:05:17.466Z,5.88
2023-12-22T04:08:19.132Z,5.95
2023-12-22T04:11:20.659Z,6.18
2023-12-22T04:14:22.319Z,6.24
2023-12-22T04:17:23.958Z,6.19
2023-12-22T04:20:25.681Z,6.27
2023-12-22T04:23:27.288Z,6.12
2023-12-22T04:26:28.833Z,6.17
2023-12-22T04:29:30.372Z,6.21
2023-12-22T04:32:31.943Z,6.23
2023-12-22T04:35:33.573Z,6.27
2023-12-22T04:38:35.165Z,6.30
2023-12-22T04:41:36.728Z,6.40
2023-12-22T04:44:38.302Z,6.36
2023-12-22T04:47:39.970Z,6.40
2023-12-22T04:50:41.914Z,6.26
2023-12-22T04:53:43.699Z,6.44
2023-12-22T04:56:45.359Z,6.42
2023-12-22T04:59:46.916Z,6.46
2023-12-22T05:02:48.505Z,6.45
2023-12-22T05:05:50.148Z,6.40
2023-12-22T05:08:51.784Z,6.36
2023-12-22T05:11:53.369Z,6.40
2023-12-22T05:14:55.693Z,6.43
2023-12-22T05:17:57.258Z,6.43
2023-12-22T05:20:58.875Z,6.34
2023-12-22T05:24:00.436Z,6.44
2023-12-22T05:27:03.303Z,6.37
2023-12-22T05:30:06.328Z,6.31
2023-12-22T05:33:07.966Z,6.30
2023-12-22T05:36:09.680Z,6.25
2023-12-22T05:39:11.597Z,6.31
2023-12-22T05:42:13.166Z,6.27
2023-12-22T05:45:15.116Z,6.37
2023-12-22T05:48:16.863Z,6.33
2023-12-22T05:51:18.568Z,6.44
2023-12-22T05:54:20.499Z,6.42
2023-12-22T05:57:22.111Z,6.43
2023-12-22T06:00:23.753Z,6.40
2023-12-22T06:03:25.443Z,6.42
2023-12-22T06:06:28.822Z,6.41
2023-12-22T06:09:31.513Z,6.43
2023-12-22T06:12:33.152Z,6.48
2023-12-22T06:15:35.036Z,6.43
2023-12-22T06:18:36.600Z,6.47
2023-12-22T06:21:42.128Z,6.48
2023-12-22T06:24:44.360Z,6.57
2023-12-22T06:27:47.031Z,6.57
2023-12-22T06:30:48.836Z,6.61
2023-12-22T06:33:51.586Z,6.64
2023-12-22T06:36:53.221Z,6.58
2023-12-22T06:39:54.813Z,6.52
2023-12-22T06:42:56.571Z,6.51
2023-12-22T06:45:59.526Z,6.46
2023-12-22T06:49:03.553Z,6.50
2023-12-22T06:52:06.819Z,6.39
2023-12-22T06:55:08.746Z,6.43
2023-12-22T06:58:10.471Z,6.45
2023-12-22T07:01:12.110Z,6.38
2023-12-22T07:04:13.751Z,6.44
2023-12-22T07:07:15.379Z,6.47
2023-12-22T07:10:17.124Z,6.35
2023-12-22T07:13:19.090Z,6.46
2023-12-22T07:16:20.712Z,6.44
2023-12-22T07:19:22.340Z,6.47
2023-12-22T07:22:24.014Z,6.36
2023-12-22T07:25:25.736Z,6.34
2023-12-22T07:28:27.555Z,6.38
2023-12-22T07:31:29.310Z,6.36
2023-12-22T07:34:31.050Z,6.33
2023-12-22T07:37:32.685Z,6.34
2023-12-22T07:40:34.356Z,6.36
2023-12-22T07:43:36.180Z,6.39
2023-12-22T07:46:37.785Z,6.34
2023-12-22T07:49:39.510Z,6.36
2023-12-22T07:52:42.246Z,6.25
2023-12-22T07:55:45.012Z,6.15
2023-12-22T07:58:46.651Z,6.13
2023-12-22T08:01:48.279Z,6.17
2023-12-22T08:04:51.378Z,6.13
2023-12-22T08:07:53.563Z,6.12
2023-12-22T08:10:55.425Z,6.24
2023-12-22T08:13:57.469Z,6.18
2023-12-22T08:16:59.280Z,6.15
2023-12-22T08:20:06.025Z,6.20
2023-12-22T08:23:14.508Z,6.22
2023-12-22T08:26:18.439Z,6.20
2023-12-22T08:29:20.764Z,6.15
2023-12-22T08:32:22.408Z,6.22
2023-12-22T08:35:24.053Z,6.16
2023-12-22T08:38:25.758Z,6.12
2023-12-22T08:41:28.089Z,6.23
2023-12-22T08:44:29.698Z,6.21
2023-12-22T08:47:31.287Z,6.28
2023-12-22T08:50:32.923Z,6.24
2023-12-22T08:53:37.549Z,6.19
2023-12-22T08:56:39.381Z,6.17
2023-12-22T08:59:41.194Z,6.16
2023-12-22T09:02:42.805Z,6.28
2023-12-22T09:05:44.437Z,6.21
2023-12-22T09:08:46.067Z,6.29
2023-12-22T09:11:47.721Z,6.32
2023-12-22T09:14:49.285Z,6.36
2023-12-22T09:17:52.894Z,6.41
2023-12-22T09:20:54.806Z,6.27
2023-12-22T09:23:56.769Z,6.30
2023-12-22T09:27:03.706Z,6.34
2023-12-22T09:30:08.405Z,6.28
2023-12-22T09:33:10.546Z,6.29
2023-12-22T09:36:13.199Z,6.32
2023-12-22T09:39:18.019Z,6.28
2023-12-22T09:42:21.112Z,6.36
2023-12-22T09:45:22.932Z,6.37
2023-12-22T09:48:30.670Z,6.41
2023-12-22T09:51:32.957Z,6.50
2023-12-22T09:54:34.945Z,6.50
2023-12-22T09:57:36.517Z,6.48
2023-12-22T10:00:38.331Z,6.56
2023-12-22T10:03:40.053Z,6.48
2023-12-22T10:06:46.874Z,6.37
2023-12-22T10:09:49.100Z,6.31
2023-12-22T10:12:50.684Z,6.38
2023-12-22T10:15:52.365Z,6.31
2023-12-22T10:18:54.150Z,6.28
2023-12-22T10:22:00.399Z,6.18
2023-12-22T10:25:11.691Z,6.10
2023-12-22T10:28:39.723Z,6.07
2023-12-22T10:31:43.868Z,6.14
2023-12-22T10:34:48.579Z,6.14
2023-12-22T10:37:55.969Z,6.04
2023-12-22T10:41:48.191Z,6.20
2023-12-22T10:44:53.096Z,5.99
2023-12-22T10:47:55.638Z,6.00
2023-12-22T10:50:57.344Z,6.07
2023-12-22T10:53:59.049Z,5.98
2023-12-22T10:57:01.666Z,5.98
2023-12-22T11:00:04.691Z,5.96
2023-12-22T11:03:11.340Z,6.01
2023-12-22T11:06:16.499Z,5.98
2023-12-22T11:09:18.537Z,6.05
2023-12-22T11:12:42.022Z,6.17
2023-12-22T11:16:15.796Z,6.10
2023-12-22T11:19:35.872Z,6.17
2023-12-22T11:22:57.230Z,6.15
2023-12-22T11:26:15.054Z,6.19
2023-12-22T11:45:46.483Z,6.09
2023-12-22T11:49:03.109Z,6.13
2023-12-22T11:52:47.528Z,6.10
2023-12-22T11:57:05.608Z,6.20
2023-12-22T12:00:27.981Z,6.20
2023-12-22T12:08:21.036Z,6.23
2023-12-22T12:11:43.232Z,6.22
2023-12-22T12:14:45.372Z,6.22
2023-12-22T12:17:49.595Z,6.25
2023-12-22T12:21:03.530Z,6.27
2023-12-22T12:24:06.478Z,6.34
2023-12-22T12:27:08.173Z,6.37
2023-12-22T12:30:14.982Z,6.27
2023-12-22T12:33:17.362Z,6.38
2023-12-22T12:36:19.375Z,6.42
2023-12-22T12:39:21.243Z,6.43
2023-12-22T12:42:22.967Z,6.38
2023-12-22T12:45:24.789Z,6.41
2023-12-22T12:48:26.710Z,6.50
2023-12-22T12:51:30.723Z,6.57
2023-12-22T12:54:32.803Z,6.49
2023-12-22T12:57:34.552Z,6.55
2023-12-22T13:00:37.923Z,6.55
2023-12-22T13:04:03.517Z,6.57
2023-12-22T13:07:05.226Z,6.58
2023-12-22T13:10:25.782Z,6.67
2023-12-22T13:13:32.784Z,6.56
2023-12-22T13:16:36.049Z,6.65
2023-12-22T13:19:38.078Z,6.65
2023-12-22T13:22:45.330Z,6.71
2023-12-22T13:25:47.800Z,6.74
2023-12-22T13:28:56.636Z,6.69
2023-12-22T13:32:07.481Z,6.70
2023-12-22T13:43:10.487Z,6.73
2023-12-22T13:46:18.121Z,6.76
2023-12-22T13:49:27.288Z,6.77
2023-12-22T13:52:43.969Z,6.81
2023-12-22T14:04:20.800Z,6.89
2023-12-22T14:12:29.462Z,6.85
2023-12-22T14:15:46.035Z,6.86
2023-12-22T14:20:21.337Z,6.87
2023-12-22T14:23:30.233Z,6.89
2023-12-22T14:28:03.429Z,6.84
2023-12-22T14:31:35.406Z,6.90
2023-12-22T14:34:47.354Z,6.91
2023-12-22T14:37:53.067Z,6.93
2023-12-22T14:41:08.633Z,7.02
2023-12-22T14:44:18.887Z,7.03
2023-12-22T14:47:49.627Z,7.06
2023-12-22T14:51:26.736Z,7.10
2023-12-22T14:54:30.005Z,7.09
2023-12-22T15:01:08.117Z,7.22
2023-12-22T15:04:15.150Z,7.17
2023-12-22T15:08:53.770Z,7.19
2023-12-22T15:12:38.601Z,7.22
2023-12-22T16:25:00.761Z,7.10
2023-12-22T16:36:14.747Z,7.15
2023-12-22T16:40:18.077Z,7.13
2023-12-22T18:37:25.512Z,6.78
2023-12-22T18:40:25.677Z,6.74
2023-12-22T18:43:32.807Z,6.83
2023-12-22T18:46:37.673Z,6.73
2023-12-22T18:49:39.695Z,6.78
2023-12-22T18:52:50.685Z,6.65
2023-12-22T19:31:53.375Z,6.62
2023-12-22T19:34:58.270Z,6.66
2023-12-22T19:38:01.442Z,6.68
2023-12-22T19:41:12.990Z,6.76
2023-12-22T19:44:14.832Z,6.78
2023-12-22T19:47:16.628Z,6.82
2023-12-22T19:50:18.384Z,6.74
2023-12-22T19:53:20.126Z,6.76
2023-12-22T19:56:22.044Z,6.87
2023-12-22T19:59:26.419Z,6.88
2023-12-22T20:02:28.253Z,6.87
2023-12-22T20:05:31.050Z,6.86
2023-12-22T20:08:32.808Z,6.82
2023-12-22T20:11:35.093Z,6.86
2023-12-22T20:14:42.332Z,6.88
2023-12-22T20:17:45.878Z,6.80
2023-12-22T20:20:49.137Z,6.81
2023-12-22T20:23:53.069Z,6.76
2023-12-22T20:26:54.949Z,6.77
2023-12-22T20:29:56.595Z,6.75
2023-12-22T20:32:58.363Z,6.70
2023-12-22T20:36:00.213Z,6.67
2023-12-22T20:39:01.859Z,6.71
2023-12-22T20:42:03.655Z,6.72
2023-12-22T20:45:05.969Z,6.72
2023-12-22T20:48:09.024Z,6.72
2023-12-22T20:51:10.787Z,6.74
2023-12-22T20:54:14.524Z,6.82
2023-12-22T20:57:16.232Z,6.83
2023-12-22T21:00:18.172Z,6.74
2023-12-22T21:03:19.918Z,6.76
2023-12-22T21:06:21.572Z,6.82
2023-12-22T21:09:23.320Z,6.80
2023-12-22T21:12:26.483Z,6.74
2023-12-22T21:15:28.188Z,6.75
2023-12-22T21:18:29.896Z,6.72
2023-12-22T21:21:31.646Z,6.72
2023-12-22T21:24:34.961Z,6.77
2023-12-22T21:27:43.108Z,6.70
2023-12-22T21:30:44.995Z,6.61
2023-12-22T21:33:46.936Z,6.64
2023-12-22T21:36:50.352Z,6.54
2023-12-22T21:39:52.506Z,6.59
2023-12-22T21:42:56.667Z,6.59
2023-12-22T21:45:58.271Z,6.55
2023-12-22T21:49:00.046Z,6.61
2023-12-22T21:52:01.838Z,6.59
2023-12-22T21:55:03.685Z,6.58
2023-12-22T21:58:05.336Z,6.66
2023-12-22T22:01:07.018Z,6.65
2023-12-22T22:04:08.948Z,6.60
2023-12-22T22:07:13.561Z,6.59
2023-12-22T22:10:15.345Z,6.58
2023-12-22T22:13:17.567Z,6.68
2023-12-22T22:16:19.222Z,6.69
2023-12-22T22:19:21.021Z,6.67
2023-12-22T22:22:22.897Z,6.63
2023-12-22T22:25:24.622Z,6.63
2023-12-22T22:28:26.256Z,6.64
2023-12-22T22:31:27.968Z,6.60
2023-12-22T22:34:33.072Z,6.60
2023-12-22T22:37:34.795Z,6.59
2023-12-22T22:40:36.725Z,6.65
2023-12-22T22:43:39.492Z,6.60
2023-12-22T22:46:41.833Z,6.53
2023-12-22T22:49:43.674Z,6.43
2023-12-22T22:52:45.373Z,6.51
2023-12-22T22:55:47.063Z,6.62
2023-12-22T22:58:49.012Z,6.56
2023-12-22T23:01:50.883Z,6.52
2023-12-22T23:04:52.683Z,6.63
2023-12-22T23:07:54.721Z,6.68
2023-12-22T23:10:56.625Z,6.69
2023-12-22T23:13:58.508Z,6.67
2023-12-22T23:17:00.265Z,6.74
2023-12-22T23:20:02.133Z,6.62
2023-12-22T23:23:05.907Z,6.50
2023-12-22T23:26:07.599Z,6.59
2023-12-22T23:29:09.463Z,6.57
2023-12-22T23:32:11.244Z,6.52
2023-12-22T23:35:13.142Z,6.56
2023-12-22T23:38:14.901Z,6.55
2023-12-22T23:41:16.765Z,6.59
2023-12-22T23:44:18.755Z,6.61
2023-12-22T23:47:20.833Z,6.66
2023-12-22T23:50:22.844Z,6.66
2023-12-22T23:53:24.530Z,6.65
2023-12-22T23:56:26.478Z,6.63
2023-12-22T23:59:28.143Z,6.63
